createdAt,value
2019-06-01T00:04:21.843Z,20.30
2019-06-01T00:09:25.264Z,20.22
2019-06-01T00:14:28.724Z,20.17
2019-06-01T00:19:31.875Z,19.96
2019-06-01T00:24:35.023Z,19.93
2019-06-01T00:29:37.840Z,19.78
2019-06-01T00:34:41.254Z,19.73
2019-06-01T00:39:44.081Z,19.32
2019-06-01T00:44:46.812Z,19.29
2019-06-01T00:49:51.499Z,19.06
2019-06-01T00:54:55.651Z,19.14
2019-06-01T00:59:59.735Z,19.08
2019-06-01T01:05:19.456Z,18.92
2019-06-01T01:10:22.168Z,18.95
2019-06-01T01:15:24.899Z,18.83
2019-06-01T01:20:27.599Z,18.81
2019-06-01T01:25:30.396Z,18.75
2019-06-01T01:30:33.089Z,18.56
2019-06-01T01:35:35.798Z,18.57
2019-06-01T01:40:38.538Z,18.24
2019-06-01T01:45:41.921Z,18.31
2019-06-01T01:50:44.647Z,18.15
2019-06-01T01:55:47.378Z,18.07
2019-06-01T02:00:54.556Z,17.92
2019-06-01T02:05:57.556Z,17.91
2019-06-01T02:11:01.676Z,18.03
2019-06-01T02:16:04.798Z,17.99
2019-06-01T02:21:07.541Z,17.90
2019-06-01T02:26:10.262Z,17.93
2019-06-01T02:31:12.978Z,17.73
2019-06-01T02:36:15.715Z,17.64
2019-06-01T02:41:18.411Z,17.71
2019-06-01T02:46:21.138Z,17.68
2019-06-01T02:51:23.831Z,17.64
2019-06-01T02:56:26.541Z,17.63
2019-06-01T03:01:33.917Z,17.65
2019-06-01T03:06:40.073Z,17.67
2019-06-01T03:11:42.893Z,17.61
2019-06-01T03:16:50.325Z,17.59
2019-06-01T03:21:59.658Z,17.57
2019-06-01T03:27:04.688Z,17.58
2019-06-01T03:32:33.324Z,17.65
2019-06-01T03:37:13.396Z,17.74
2019-06-01T03:42:16.809Z,17.81
2019-06-01T03:47:19.630Z,17.93
2019-06-01T03:52:22.344Z,18.12
2019-06-01T03:57:25.051Z,18.20
2019-06-01T04:02:33.266Z,18.25
2019-06-01T04:07:32.428Z,18.38
2019-06-01T04:12:35.155Z,18.49
2019-06-01T04:17:37.945Z,18.53
2019-06-01T04:22:40.694Z,18.58
2019-06-01T04:27:43.419Z,18.64
2019-06-01T04:32:49.985Z,18.79
2019-06-01T04:37:50.987Z,18.98
2019-06-01T04:42:53.779Z,19.22
2019-06-01T04:47:56.484Z,19.43
2019-06-01T04:52:59.387Z,19.59
2019-06-01T04:58:02.136Z,19.77
2019-06-01T05:03:07.177Z,19.89
2019-06-01T05:08:09.513Z,20.03
2019-06-01T05:13:13.508Z,20.20
2019-06-01T05:18:19.320Z,20.50
2019-06-01T05:23:21.665Z,20.87
2019-06-01T05:28:24.617Z,21.21
2019-06-01T05:33:36.976Z,21.37
2019-06-01T05:38:32.073Z,21.40
2019-06-01T05:43:34.812Z,21.49
2019-06-01T05:48:37.715Z,21.77
2019-06-01T05:53:40.440Z,22.17
2019-06-01T05:58:43.179Z,22.08
2019-06-01T06:03:48.645Z,21.89
2019-06-01T06:08:51.557Z,22.01
2019-06-01T06:13:54.403Z,22.19
2019-06-01T06:18:57.141Z,22.08
2019-06-01T06:23:59.883Z,22.53
2019-06-01T06:29:02.872Z,22.59
2019-06-01T06:34:05.614Z,22.81
2019-06-01T06:39:08.349Z,23.16
2019-06-01T06:44:11.150Z,23.22
2019-06-01T06:49:15.000Z,23.27
2019-06-01T06:54:17.843Z,23.24
2019-06-01T06:59:20.672Z,23.14
2019-06-01T07:04:23.430Z,23.31
2019-06-01T07:09:26.285Z,23.34
2019-06-01T07:14:28.997Z,23.31
2019-06-01T07:19:31.925Z,23.34
2019-06-01T07:24:34.764Z,23.39
2019-06-01T07:29:37.606Z,23.32
2019-06-01T07:34:42.770Z,23.56
2019-06-01T07:39:46.265Z,23.51
2019-06-01T07:44:50.021Z,23.61
2019-06-01T07:49:53.044Z,23.62
2019-06-01T07:54:55.865Z,23.81
2019-06-01T07:59:58.790Z,23.92
2019-06-01T08:05:01.609Z,24.37
2019-06-01T08:10:04.591Z,24.43
2019-06-01T08:15:07.942Z,24.61
2019-06-01T08:20:12.494Z,24.71
2019-06-01T08:25:15.301Z,24.93
2019-06-01T08:30:18.396Z,24.76
2019-06-01T08:35:21.246Z,24.97
2019-06-01T08:40:25.179Z,25.22
2019-06-01T08:45:29.566Z,25.30
2019-06-01T08:50:33.997Z,25.46
2019-06-01T08:55:36.850Z,25.62
2019-06-01T09:00:39.662Z,25.73
2019-06-01T09:05:42.424Z,25.81
2019-06-01T09:10:45.160Z,25.79
2019-06-01T09:15:48.004Z,25.67
2019-06-01T09:20:50.821Z,25.82
2019-06-01T09:25:53.632Z,26.09
2019-06-01T09:30:56.356Z,26.29
2019-06-01T09:35:59.102Z,26.34
2019-06-01T09:41:01.846Z,26.35
2019-06-01T09:46:04.672Z,26.56
2019-06-01T09:51:07.378Z,26.69
2019-06-01T09:56:10.109Z,26.63
2019-06-01T10:01:12.854Z,26.47
2019-06-01T10:06:15.566Z,26.56
2019-06-01T10:11:18.311Z,26.71
2019-06-01T10:16:21.065Z,26.80
2019-06-01T10:21:23.820Z,27.09
2019-06-01T10:26:26.640Z,27.24
2019-06-01T10:31:30.491Z,27.41
2019-06-01T10:36:34.014Z,27.83
2019-06-01T10:41:37.440Z,28.04
2019-06-01T10:46:40.307Z,27.98
2019-06-01T10:51:43.050Z,27.90
2019-06-01T10:56:45.756Z,27.85
2019-06-01T11:01:48.488Z,27.74
2019-06-01T11:06:51.237Z,27.70
2019-06-01T11:11:53.972Z,27.73
2019-06-01T11:16:56.957Z,27.85
2019-06-01T11:21:59.818Z,27.86
2019-06-01T11:27:02.561Z,27.78
2019-06-01T11:32:05.295Z,27.85
2019-06-01T11:37:08.063Z,27.89
2019-06-01T11:42:10.854Z,28.05
2019-06-01T11:47:13.575Z,28.15
2019-06-01T11:52:16.323Z,28.08
2019-06-01T11:57:19.055Z,28.33
2019-06-01T12:02:22.399Z,28.30
2019-06-01T12:07:25.119Z,28.52
2019-06-01T12:12:27.839Z,28.63
2019-06-01T12:17:30.620Z,28.78
2019-06-01T12:22:33.355Z,28.95
2019-06-01T12:27:37.321Z,29.06
2019-06-01T12:32:40.280Z,29.17
2019-06-01T12:38:00.843Z,29.34
2019-06-01T12:42:47.823Z,29.38
2019-06-01T12:47:55.554Z,29.45
2019-06-01T12:52:55.305Z,29.43
2019-06-01T12:57:58.046Z,29.51
2019-06-01T13:03:06.952Z,29.55
2019-06-01T13:08:05.440Z,29.80
2019-06-01T13:13:08.195Z,30.06
2019-06-01T13:18:11.036Z,30.02
2019-06-01T13:23:13.768Z,29.94
2019-06-01T13:28:16.496Z,29.90
2019-06-01T13:33:19.230Z,30.12
2019-06-01T13:38:21.940Z,30.32
2019-06-01T13:43:24.649Z,30.24
2019-06-01T13:48:27.423Z,30.24
2019-06-01T13:53:30.139Z,30.36
2019-06-01T13:58:32.853Z,30.58
2019-06-01T14:03:35.603Z,30.84
2019-06-01T14:08:38.381Z,31.07
2019-06-01T14:13:41.121Z,31.13
2019-06-01T14:18:43.882Z,31.09
2019-06-01T14:23:47.648Z,31.14
2019-06-01T14:28:50.442Z,31.35
2019-06-01T14:33:57.998Z,31.52
2019-06-01T14:39:00.950Z,31.78
2019-06-01T14:44:03.917Z,31.69
2019-06-01T14:49:06.653Z,31.81
2019-06-01T14:54:09.408Z,32.01
2019-06-01T14:59:12.158Z,32.21
2019-06-01T15:04:14.900Z,32.21
2019-06-01T15:09:19.678Z,32.07
2019-06-01T15:14:22.283Z,32.09
2019-06-01T15:19:25.000Z,32.09
2019-06-01T15:24:27.748Z,31.88
2019-06-01T15:29:30.484Z,31.91
2019-06-01T15:34:33.223Z,32.00
2019-06-01T15:39:36.350Z,32.04
2019-06-01T15:44:39.135Z,31.97
2019-06-01T15:49:44.627Z,32.20
2019-06-01T15:54:47.348Z,32.22
2019-06-01T15:59:50.092Z,32.41
2019-06-01T16:04:52.941Z,32.39
2019-06-01T16:09:55.812Z,32.48
2019-06-01T16:14:59.714Z,32.54
2019-06-01T16:20:02.525Z,32.49
2019-06-01T16:25:05.478Z,32.59
2019-06-01T16:30:08.917Z,32.76
2019-06-01T16:35:11.856Z,32.93
2019-06-01T16:40:15.607Z,32.92
2019-06-01T16:45:20.126Z,32.62
2019-06-01T16:50:22.890Z,32.37
2019-06-01T16:55:25.620Z,32.16
2019-06-01T17:00:28.451Z,31.70
2019-06-01T17:05:33.582Z,31.37
2019-06-01T17:10:38.192Z,31.02
2019-06-01T17:15:41.061Z,30.80
2019-06-01T17:20:46.782Z,30.74
2019-06-01T17:25:49.504Z,30.75
2019-06-01T17:30:52.287Z,30.56
2019-06-01T17:35:55.273Z,30.39
2019-06-01T17:40:58.007Z,30.25
2019-06-01T17:46:00.807Z,30.01
2019-06-01T17:51:04.481Z,29.93
2019-06-01T17:56:08.193Z,29.82
2019-06-01T18:01:12.076Z,29.61
2019-06-01T18:06:14.972Z,29.53
2019-06-01T18:11:18.912Z,29.33
2019-06-01T18:16:21.671Z,29.22
2019-06-01T18:21:24.611Z,29.01
2019-06-01T18:26:33.275Z,28.92
2019-06-01T18:31:36.035Z,28.88
2019-06-01T18:36:38.850Z,28.81
2019-06-01T18:41:41.581Z,28.71
2019-06-01T18:46:44.309Z,28.70
2019-06-01T18:51:47.636Z,28.64
2019-06-01T18:56:50.532Z,28.56
2019-06-01T19:01:53.262Z,28.40
2019-06-01T19:06:55.956Z,28.10
2019-06-01T19:11:58.682Z,27.88
2019-06-01T19:17:01.530Z,27.70
2019-06-01T19:22:04.467Z,27.43
2019-06-01T19:27:07.185Z,27.17
2019-06-01T19:32:10.843Z,26.99
2019-06-01T19:37:17.173Z,26.84
2019-06-01T19:42:19.989Z,26.66
2019-06-01T19:47:22.703Z,26.37
2019-06-01T19:52:25.449Z,25.79
2019-06-01T19:57:28.150Z,25.55
2019-06-01T20:02:33.950Z,25.38
2019-06-01T20:07:35.544Z,25.19
2019-06-01T20:12:38.362Z,24.83
2019-06-01T20:17:41.144Z,24.59
2019-06-01T20:22:43.890Z,24.39
2019-06-01T20:27:46.656Z,24.30
2019-06-01T20:32:49.429Z,24.02
2019-06-01T20:37:52.184Z,23.89
2019-06-01T20:42:54.966Z,24.07
2019-06-01T20:47:57.731Z,23.83
2019-06-01T20:53:00.452Z,23.90
2019-06-01T20:58:03.230Z,23.76
2019-06-01T21:03:05.980Z,23.59
2019-06-01T21:08:08.745Z,23.43
2019-06-01T21:13:11.473Z,23.42
2019-06-01T21:18:14.394Z,23.26
2019-06-01T21:23:18.694Z,22.93
2019-06-01T21:28:22.529Z,23.00
2019-06-01T21:33:28.711Z,22.96
2019-06-01T21:38:31.213Z,22.81
2019-06-01T21:43:35.531Z,22.70
2019-06-01T21:48:38.402Z,22.66
2019-06-01T21:53:41.167Z,22.58
2019-06-01T21:58:43.925Z,22.63
2019-06-01T22:03:46.699Z,22.48
2019-06-01T22:08:52.592Z,22.32
2019-06-01T22:13:54.070Z,22.34
2019-06-01T22:18:56.812Z,22.41
2019-06-01T22:23:59.557Z,22.43
2019-06-01T22:29:02.293Z,22.37
2019-06-01T22:34:05.131Z,22.33
2019-06-01T22:39:08.194Z,22.22
2019-06-01T22:44:10.926Z,22.17
2019-06-01T22:49:13.656Z,22.08
2019-06-01T22:54:17.446Z,22.01
2019-06-01T22:59:20.540Z,21.70
2019-06-01T23:04:23.363Z,21.80
2019-06-01T23:09:27.318Z,21.65
2019-06-01T23:14:31.443Z,21.51
2019-06-01T23:19:34.275Z,21.31
2019-06-01T23:24:37.152Z,21.16
2019-06-01T23:29:39.882Z,20.88
2019-06-01T23:34:42.618Z,20.94
2019-06-01T23:39:45.373Z,20.89
2019-06-01T23:44:48.136Z,20.78
2019-06-01T23:49:50.881Z,20.61
2019-06-01T23:54:53.622Z,20.50
2019-06-01T23:59:56.416Z,20.63
